Time;durP1;ratioP1;P1;durP2;ratioP2;P2;SDS_P1;SDS_P2;PMS_P1;PMS_P2;Temp;Humidity;BMP_temperature;BMP_pressure;BME280_temperature;BME280_humidity;BME280_pressure;Samples;Min_cycle;Max_cycle;Signal;HPM_P1;HPM_P2
2022/10/14 00:00:52;;;;;;;;;;;22.70;57.00;;;;;;1521449;78;765;-56
2022/10/14 00:02:54;;;;;;;;;;;22.70;57.10;;;;;;1526274;77;751;-56
2022/10/14 00:04:56;;;;;;;;;;;22.80;57.10;;;;;;1523071;77;1136;-55
2022/10/14 00:06:58;;;;;;;;;;;22.80;57.10;;;;;;1508725;77;769;-56
2022/10/14 00:09:00;;;;;;;;;;;22.70;57.20;;;;;;1521507;77;724;-56
2022/10/14 00:11:06;;;;;;;;;;;22.70;57.20;;;;;;1539330;76;1563;-56
2022/10/14 00:13:08;;;;;;;;;;;22.70;57.30;;;;;;1537874;76;1951;-55
2022/10/14 00:15:09;;;;;;;;;;;22.70;57.40;;;;;;1532458;76;1150;-52
2022/10/14 00:17:11;;;;;;;;;;;22.70;57.60;;;;;;1530746;76;759;-55
2022/10/14 00:19:13;;;;;;;;;;;22.70;57.50;;;;;;1537366;76;810;-55
2022/10/14 00:21:15;;;;;;;;;;;22.70;57.40;;;;;;1523010;76;862;-54
2022/10/14 00:23:17;;;;;;;;;;;22.70;57.40;;;;;;1507442;77;823;-53
2022/10/14 00:25:19;;;;;;;;;;;22.80;57.40;;;;;;1515954;77;1559;-54
2022/10/14 00:27:21;;;;;;;;;;;22.70;57.30;;;;;;1522334;77;1088;-55
2022/10/14 00:29:23;;;;;;;;;;;22.80;57.40;;;;;;1508379;77;682;-51
2022/10/14 00:31:25;;;;;;;;;;;22.70;57.40;;;;;;1559784;74;624;-52
2022/10/14 00:33:27;;;;;;;;;;;22.70;57.30;;;;;;1576640;74;1932;-55
2022/10/14 00:35:31;;;;;;;;;;;22.80;57.30;;;;;;1573649;74;1184;-55
2022/10/14 00:37:32;;;;;;;;;;;22.80;57.30;;;;;;1565999;74;2015;-55
2022/10/14 00:39:34;;;;;;;;;;;22.80;57.20;;;;;;1572987;74;1577;-55
2022/10/14 00:41:36;;;;;;;;;;;22.80;57.20;;;;;;1579381;74;675;-54
2022/10/14 00:43:51;;;;;;;;;;;22.80;57.20;;;;;;1575809;74;788;-52
2022/10/14 00:45:53;;;;;;;;;;;22.80;57.30;;;;;;1572792;74;1059;-54
2022/10/14 00:47:55;;;;;;;;;;;22.70;57.30;;;;;;1568165;74;732;-55
2022/10/14 00:49:57;;;;;;;;;;;22.80;57.30;;;;;;1572441;74;706;-55
2022/10/14 00:52:04;;;;;;;;;;;22.80;57.40;;;;;;1537482;76;1941;-55
2022/10/14 00:54:06;;;;;;;;;;;22.70;57.50;;;;;;1567866;74;1518;-55
2022/10/14 00:56:08;;;;;;;;;;;22.70;57.30;;;;;;1567972;74;1167;-55
2022/10/14 00:58:10;;;;;;;;;;;22.70;57.30;;;;;;1563886;74;774;-55
2022/10/14 01:00:13;;;;;;;;;;;22.70;57.30;;;;;;1564564;74;739;-55
2022/10/14 01:02:15;;;;;;;;;;;22.70;57.30;;;;;;1568955;74;703;-51
2022/10/14 01:04:17;;;;;;;;;;;22.60;57.30;;;;;;1566636;74;788;-55
2022/10/14 01:06:21;;;;;;;;;;;22.70;57.40;;;;;;1567081;74;1125;-55
2022/10/14 01:08:24;;;;;;;;;;;22.60;57.30;;;;;;1566629;74;1416;-55
2022/10/14 01:10:31;;;;;;;;;;;22.70;57.30;;;;;;1552046;74;693;-52
2022/10/14 01:12:35;;;;;;;;;;;22.60;57.40;;;;;;1566139;74;1910;-55
2022/10/14 01:14:58;;;;;;;;;;;22.70;57.60;;;;;;1559332;74;1956;-55
2022/10/14 01:17:00;;;;;;;;;;;22.70;57.60;;;;;;1569402;74;1660;-52
2022/10/14 01:19:20;;;;;;;;;;;22.60;57.60;;;;;;1568210;74;851;-55
2022/10/14 01:21:28;;;;;;;;;;;22.70;57.70;;;;;;1560803;74;1563;-55
2022/10/14 01:23:50;;;;;;;;;;;22.70;57.70;;;;;;1577646;74;774;-55
2022/10/14 01:25:56;;;;;;;;;;;22.60;57.60;;;;;;1520772;77;1150;-54
2022/10/14 01:28:03;;;;;;;;;;;22.60;57.60;;;;;;1504429;77;1057;-55
2022/10/14 01:30:12;;;;;;;;;;;22.70;57.80;;;;;;1512777;78;739;-55
2022/10/14 01:32:18;;;;;;;;;;;22.60;57.70;;;;;;1544048;75;1949;-52
2022/10/14 01:34:24;;;;;;;;;;;22.60;57.80;;;;;;1560573;74;871;-52
2022/10/14 01:36:40;;;;;;;;;;;22.60;57.80;;;;;;1552379;75;1804;-54
2022/10/14 01:38:44;;;;;;;;;;;22.50;57.80;;;;;;1544885;74;1893;-53
2022/10/14 01:41:04;;;;;;;;;;;22.50;57.80;;;;;;1550477;74;863;-55
2022/10/14 01:43:06;;;;;;;;;;;22.60;57.80;;;;;;1548248;74;807;-55
2022/10/14 01:45:12;;;;;;;;;;;22.50;57.90;;;;;;1553808;75;1133;-55
2022/10/14 01:47:14;;;;;;;;;;;22.60;58.00;;;;;;1561113;74;729;-55
2022/10/14 01:49:33;;;;;;;;;;;22.60;57.90;;;;;;1558290;74;1533;-55
2022/10/14 01:51:36;;;;;;;;;;;22.50;58.00;;;;;;1548331;75;1818;-55
2022/10/14 01:53:46;;;;;;;;;;;22.60;58.00;;;;;;1553000;74;1968;-55
2022/10/14 01:55:47;;;;;;;;;;;22.60;58.10;;;;;;1560736;75;1892;-53
2022/10/14 01:57:49;;;;;;;;;;;22.50;58.10;;;;;;1552905;75;733;-55
2022/10/14 01:59:51;;;;;;;;;;;22.60;58.10;;;;;;1553353;74;714;-54
2022/10/14 02:01:53;;;;;;;;;;;22.60;58.20;;;;;;1558904;75;721;-54
2022/10/14 02:03:55;;;;;;;;;;;22.60;58.20;;;;;;1558808;75;1556;-54
2022/10/14 02:05:59;;;;;;;;;;;22.60;58.10;;;;;;1564676;75;1115;-54
2022/10/14 02:08:11;;;;;;;;;;;22.60;58.10;;;;;;1561248;74;711;-52
2022/10/14 02:10:20;;;;;;;;;;;22.60;58.00;;;;;;1556150;75;736;-53
2022/10/14 02:12:40;;;;;;;;;;;22.70;58.10;;;;;;1557730;74;1941;-54
2022/10/14 02:14:44;;;;;;;;;;;22.70;58.10;;;;;;1558147;74;764;-53
2022/10/14 02:16:49;;;;;;;;;;;22.60;58.00;;;;;;1566155;75;657;-54
2022/10/14 02:19:04;;;;;;;;;;;22.60;58.00;;;;;;1551847;74;1541;-51
2022/10/14 02:21:16;;;;;;;;;;;22.60;58.10;;;;;;1553738;75;1835;-54
2022/10/14 02:23:19;;;;;;;;;;;22.60;58.20;;;;;;1552404;74;748;-55
2022/10/14 02:25:25;;;;;;;;;;;22.70;58.00;;;;;;1559730;75;1128;-55
2022/10/14 02:27:27;;;;;;;;;;;22.80;57.60;;;;;;1562424;74;1845;-52
2022/10/14 02:29:29;;;;;;;;;;;22.80;57.60;;;;;;1573566;74;1090;-55
2022/10/14 02:31:31;;;;;;;;;;;22.70;57.50;;;;;;1556741;74;1542;-55
2022/10/14 02:33:37;;;;;;;;;;;22.80;57.60;;;;;;1560735;74;1918;-53
2022/10/14 02:35:39;;;;;;;;;;;22.70;57.50;;;;;;1565405;74;1785;-53
2022/10/14 02:37:41;;;;;;;;;;;22.80;57.50;;;;;;1578856;74;737;-54
2022/10/14 02:39:56;;;;;;;;;;;22.70;57.50;;;;;;1570767;74;742;-56
2022/10/14 02:41:58;;;;;;;;;;;22.80;57.50;;;;;;1570745;74;702;-55
2022/10/14 02:44:00;;;;;;;;;;;22.60;57.50;;;;;;1577935;74;738;-57
2022/10/14 02:46:02;;;;;;;;;;;22.70;57.60;;;;;;1571237;74;1565;-56
2022/10/14 02:48:04;;;;;;;;;;;22.70;57.60;;;;;;1563766;74;752;-53
2022/10/14 02:50:06;;;;;;;;;;;22.60;57.60;;;;;;1572822;74;673;-57
2022/10/14 02:52:08;;;;;;;;;;;22.60;57.60;;;;;;1582052;74;725;-53
2022/10/14 02:54:10;;;;;;;;;;;22.60;57.60;;;;;;1572012;74;1939;-56
2022/10/14 02:56:15;;;;;;;;;;;22.60;57.70;;;;;;1571024;74;1145;-57
2022/10/14 02:58:16;;;;;;;;;;;22.60;57.70;;;;;;1565045;74;730;-53
2022/10/14 03:00:18;;;;;;;;;;;22.60;57.80;;;;;;1574668;74;1627;-57
2022/10/14 03:02:20;;;;;;;;;;;22.60;57.80;;;;;;1568280;74;690;-54
2022/10/14 03:04:22;;;;;;;;;;;22.60;57.80;;;;;;1568880;74;739;-57
2022/10/14 03:06:24;;;;;;;;;;;22.60;57.90;;;;;;1557647;74;1139;-57
2022/10/14 03:08:26;;;;;;;;;;;22.60;57.90;;;;;;1568029;74;739;-54
2022/10/14 03:10:28;;;;;;;;;;;22.60;57.80;;;;;;1556390;74;749;-56
2022/10/14 03:12:30;;;;;;;;;;;22.60;57.80;;;;;;1573640;74;856;-54
2022/10/14 03:14:32;;;;;;;;;;;22.60;58.00;;;;;;1561712;74;1624;-58
2022/10/14 03:16:33;;;;;;;;;;;22.60;58.00;;;;;;1559557;74;1114;-57
2022/10/14 03:18:35;;;;;;;;;;;22.60;58.10;;;;;;1569071;74;743;-57
2022/10/14 03:20:37;;;;;;;;;;;22.60;58.00;;;;;;1557069;74;730;-57
2022/10/14 03:22:39;;;;;;;;;;;22.60;58.10;;;;;;1559576;74;754;-57
2022/10/14 03:24:41;;;;;;;;;;;22.50;58.10;;;;;;1562485;74;565;-58
2022/10/14 03:26:43;;;;;;;;;;;22.60;58.10;;;;;;1569793;74;1124;-57
2022/10/14 03:28:45;;;;;;;;;;;22.60;58.10;;;;;;1581864;74;1500;-57
2022/10/14 03:30:47;;;;;;;;;;;22.50;58.20;;;;;;1585997;74;609;-57
2022/10/14 03:32:49;;;;;;;;;;;22.50;58.30;;;;;;1587320;74;1925;-57
2022/10/14 03:34:50;;;;;;;;;;;22.60;58.40;;;;;;1568502;74;1203;-58
2022/10/14 03:36:52;;;;;;;;;;;22.60;58.40;;;;;;1576851;74;700;-57
2022/10/14 03:38:54;;;;;;;;;;;22.50;58.50;;;;;;1574480;74;729;-57
2022/10/14 03:40:56;;;;;;;;;;;22.50;58.40;;;;;;1588004;74;772;-58
2022/10/14 03:42:59;;;;;;;;;;;22.50;58.40;;;;;;1582652;74;1648;-57
2022/10/14 03:45:01;;;;;;;;;;;22.50;58.40;;;;;;1585538;74;1140;-57
2022/10/14 03:47:03;;;;;;;;;;;22.50;58.40;;;;;;1571635;74;750;-57
2022/10/14 03:49:05;;;;;;;;;;;22.50;58.50;;;;;;1588377;74;799;-57
2022/10/14 03:51:07;;;;;;;;;;;22.40;58.40;;;;;;1580883;74;728;-57
2022/10/14 03:53:09;;;;;;;;;;;22.50;58.60;;;;;;1588311;74;1935;-57
2022/10/14 03:55:11;;;;;;;;;;;22.50;58.60;;;;;;1574951;74;1193;-57
2022/10/14 03:57:13;;;;;;;;;;;22.50;58.60;;;;;;1567292;74;1592;-57
2022/10/14 03:59:15;;;;;;;;;;;22.40;58.50;;;;;;1578259;74;800;-57
2022/10/14 04:01:17;;;;;;;;;;;22.50;58.60;;;;;;1580016;74;784;-57
2022/10/14 04:03:19;;;;;;;;;;;22.50;58.50;;;;;;1584698;74;752;-57
2022/10/14 04:05:21;;;;;;;;;;;22.50;58.90;;;;;;1578071;74;1114;-57
2022/10/14 04:07:22;;;;;;;;;;;22.40;58.50;;;;;;1584786;74;651;-57
2022/10/14 04:09:26;;;;;;;;;;;22.40;58.80;;;;;;1583265;74;705;-57
2022/10/14 04:11:28;;;;;;;;;;;22.50;58.90;;;;;;1588471;74;1683;-57
2022/10/14 04:13:30;;;;;;;;;;;22.40;58.90;;;;;;1579295;74;1934;-57
2022/10/14 04:15:31;;;;;;;;;;;22.50;59.00;;;;;;1585382;74;1080;-58
2022/10/14 04:17:33;;;;;;;;;;;22.60;58.60;;;;;;1573997;74;692;-57
2022/10/14 04:19:35;;;;;;;;;;;22.60;58.50;;;;;;1587567;74;798;-58
2022/10/14 04:21:37;;;;;;;;;;;22.60;58.30;;;;;;1584771;74;782;-57
2022/10/14 04:23:39;;;;;;;;;;;22.60;58.40;;;;;;1586896;74;755;-57
2022/10/14 04:25:41;;;;;;;;;;;22.60;58.40;;;;;;1576175;74;1557;-58
2022/10/14 04:27:43;;;;;;;;;;;22.60;58.40;;;;;;1576444;74;776;-57
2022/10/14 04:29:45;;;;;;;;;;;22.60;58.30;;;;;;1588170;74;1102;-57
2022/10/14 04:31:46;;;;;;;;;;;22.60;58.30;;;;;;1587511;74;702;-57
2022/10/14 04:33:48;;;;;;;;;;;22.60;58.30;;;;;;1581462;74;1945;-58
2022/10/14 04:35:50;;;;;;;;;;;22.60;58.30;;;;;;1577581;74;1195;-57
2022/10/14 04:37:52;;;;;;;;;;;22.60;58.40;;;;;;1572494;74;1510;-58
2022/10/14 04:39:54;;;;;;;;;;;22.70;58.50;;;;;;1574614;74;724;-58
2022/10/14 04:41:56;;;;;;;;;;;22.80;58.40;;;;;;1584769;74;762;-58
2022/10/14 04:43:58;;;;;;;;;;;22.70;58.30;;;;;;1581150;74;954;-58
2022/10/14 04:46:00;;;;;;;;;;;22.70;58.10;;;;;;1579013;74;1185;-58
2022/10/14 04:48:01;;;;;;;;;;;22.70;58.10;;;;;;1583920;74;769;-59
2022/10/14 04:50:03;;;;;;;;;;;22.70;58.00;;;;;;1584131;74;760;-59
2022/10/14 04:52:05;;;;;;;;;;;22.60;58.00;;;;;;1578877;74;1348;-58
2022/10/14 04:54:07;;;;;;;;;;;22.60;58.00;;;;;;1577325;74;1938;-59
2022/10/14 04:56:09;;;;;;;;;;;22.70;57.90;;;;;;1581470;74;1150;-60
2022/10/14 04:58:11;;;;;;;;;;;22.70;58.10;;;;;;1586007;74;749;-59
2022/10/14 05:00:13;;;;;;;;;;;22.50;58.10;;;;;;1580129;74;692;-60
2022/10/14 05:02:15;;;;;;;;;;;22.50;58.50;;;;;;1578995;74;791;-59
2022/10/14 05:04:17;;;;;;;;;;;22.50;58.50;;;;;;1583022;74;731;-59
2022/10/14 05:06:19;;;;;;;;;;;22.40;59.00;;;;;;1582859;74;1556;-59
2022/10/14 05:08:21;;;;;;;;;;;22.50;59.20;;;;;;1586030;74;834;-59
2022/10/14 05:10:23;;;;;;;;;;;22.60;59.00;;;;;;1587895;74;752;-59
2022/10/14 05:12:24;;;;;;;;;;;22.70;58.30;;;;;;1589447;74;720;-58
2022/10/14 05:14:26;;;;;;;;;;;22.80;57.90;;;;;;1576861;74;1933;-59
2022/10/14 05:16:28;;;;;;;;;;;22.90;57.70;;;;;;1577633;74;1129;-55
2022/10/14 05:18:30;;;;;;;;;;;22.90;57.60;;;;;;1581584;74;660;-59
2022/10/14 05:20:32;;;;;;;;;;;22.90;57.40;;;;;;1580359;74;1508;-57
2022/10/14 05:22:34;;;;;;;;;;;23.00;57.20;;;;;;1587461;74;783;-58
2022/10/14 05:24:36;;;;;;;;;;;23.00;57.10;;;;;;1581555;74;854;-59
2022/10/14 05:26:38;;;;;;;;;;;23.00;57.10;;;;;;1582344;74;1100;-58
2022/10/14 05:28:39;;;;;;;;;;;22.90;57.10;;;;;;1584379;74;778;-59
2022/10/14 05:30:41;;;;;;;;;;;22.90;57.00;;;;;;1584096;74;933;-59
2022/10/14 05:32:43;;;;;;;;;;;22.80;57.30;;;;;;1582718;74;751;-58
2022/10/14 05:34:45;;;;;;;;;;;22.80;57.10;;;;;;1580594;74;1927;-56
2022/10/14 05:36:47;;;;;;;;;;;22.60;57.30;;;;;;1590525;74;690;-57
2022/10/14 05:38:49;;;;;;;;;;;22.60;57.60;;;;;;1577727;74;792;-59
2022/10/14 05:40:54;;;;;;;;;;;22.50;57.80;;;;;;1585308;74;805;-58
2022/10/14 05:42:56;;;;;;;;;;;22.60;58.10;;;;;;1570826;74;744;-58
2022/10/14 05:44:58;;;;;;;;;;;22.60;58.20;;;;;;1572176;74;1136;-58
2022/10/14 05:47:00;;;;;;;;;;;22.70;57.80;;;;;;1584370;74;740;-56
2022/10/14 05:49:04;;;;;;;;;;;22.90;57.30;;;;;;1581017;74;1583;-58
2022/10/14 05:51:05;;;;;;;;;;;23.00;57.10;;;;;;1579218;74;1650;-58
2022/10/14 05:53:08;;;;;;;;;;;22.90;57.20;;;;;;1586086;74;738;-58
2022/10/14 05:55:10;;;;;;;;;;;22.80;57.10;;;;;;1577673;74;1927;-57
2022/10/14 05:57:12;;;;;;;;;;;22.70;57.10;;;;;;1582059;74;697;-56
2022/10/14 05:59:14;;;;;;;;;;;22.80;57.10;;;;;;1580086;74;763;-58
2022/10/14 06:01:15;;;;;;;;;;;22.70;57.10;;;;;;1577697;74;675;-57
2022/10/14 06:03:17;;;;;;;;;;;22.70;57.10;;;;;;1573755;74;1533;-55
2022/10/14 06:05:19;;;;;;;;;;;22.70;57.10;;;;;;1579138;74;1161;-59
2022/10/14 06:07:21;;;;;;;;;;;22.60;57.00;;;;;;1585588;74;696;-59
2022/10/14 06:09:23;;;;;;;;;;;22.60;57.00;;;;;;1588358;74;774;-58
2022/10/14 06:11:25;;;;;;;;;;;22.60;56.90;;;;;;1586717;74;747;-59
2022/10/14 06:13:27;;;;;;;;;;;22.60;56.60;;;;;;1588346;74;829;-57
2022/10/14 06:15:28;;;;;;;;;;;22.50;56.70;;;;;;1582453;73;1942;-54
2022/10/14 06:17:30;;;;;;;;;;;22.50;56.50;;;;;;1589785;73;1603;-54
2022/10/14 06:19:32;;;;;;;;;;;22.50;56.50;;;;;;1587492;73;703;-57
2022/10/14 06:21:34;;;;;;;;;;;22.50;56.60;;;;;;1582832;73;773;-57
2022/10/14 06:23:36;;;;;;;;;;;22.50;56.70;;;;;;1585841;74;669;-57
2022/10/14 06:25:38;;;;;;;;;;;22.40;56.60;;;;;;1584278;74;1139;-57
2022/10/14 06:27:40;;;;;;;;;;;22.40;56.70;;;;;;1581778;73;759;-57
2022/10/14 06:29:42;;;;;;;;;;;22.40;56.80;;;;;;1574048;73;771;-57
2022/10/14 06:31:44;;;;;;;;;;;22.40;56.80;;;;;;1578588;73;1571;-58
2022/10/14 06:33:46;;;;;;;;;;;22.40;56.90;;;;;;1581798;74;1950;-57
2022/10/14 06:35:48;;;;;;;;;;;22.40;57.00;;;;;;1592034;73;1199;-57
2022/10/14 06:37:50;;;;;;;;;;;22.40;57.00;;;;;;1602921;73;784;-57
2022/10/14 06:39:51;;;;;;;;;;;22.30;57.10;;;;;;1587682;73;763;-57
2022/10/14 06:41:54;;;;;;;;;;;22.40;57.10;;;;;;1595188;73;755;-57
2022/10/14 06:43:56;;;;;;;;;;;22.30;57.10;;;;;;1595895;73;797;-57
2022/10/14 06:45:58;;;;;;;;;;;22.40;57.10;;;;;;1587400;73;1575;-57
2022/10/14 06:48:00;;;;;;;;;;;22.30;57.20;;;;;;1572723;73;730;-57
2022/10/14 06:50:02;;;;;;;;;;;22.30;57.10;;;;;;1584888;73;735;-57
2022/10/14 06:52:04;;;;;;;;;;;22.30;57.10;;;;;;1583690;73;743;-57
2022/10/14 06:54:06;;;;;;;;;;;22.30;57.10;;;;;;1585846;73;1936;-57
2022/10/14 06:56:10;;;;;;;;;;;22.40;57.20;;;;;;1595941;73;1124;-57
2022/10/14 06:58:12;;;;;;;;;;;22.30;57.20;;;;;;1600008;73;1610;-56
2022/10/14 07:00:14;;;;;;;;;;;22.30;57.20;;;;;;1589578;73;1515;-57
2022/10/14 07:02:16;;;;;;;;;;;22.30;57.20;;;;;;1589702;73;806;-57
2022/10/14 07:04:18;;;;;;;;;;;22.30;57.30;;;;;;1590853;73;726;-57
2022/10/14 07:06:20;;;;;;;;;;;22.30;57.30;;;;;;1577015;74;1129;-57
2022/10/14 07:08:22;;;;;;;;;;;22.30;57.20;;;;;;1582271;73;749;-57
2022/10/14 07:10:23;;;;;;;;;;;22.20;57.10;;;;;;1585820;73;725;-57
2022/10/14 07:12:25;;;;;;;;;;;22.30;57.30;;;;;;1577832;73;750;-56
2022/10/14 07:14:28;;;;;;;;;;;22.30;57.30;;;;;;1591847;73;1942;-56
2022/10/14 07:16:30;;;;;;;;;;;22.30;57.30;;;;;;1592390;73;1096;-58
2022/10/14 07:18:32;;;;;;;;;;;22.30;57.40;;;;;;1582989;73;686;-57
2022/10/14 07:20:34;;;;;;;;;;;22.30;57.30;;;;;;1596452;73;790;-57
2022/10/14 07:22:36;;;;;;;;;;;22.30;57.40;;;;;;1593713;73;839;-56
2022/10/14 07:24:38;;;;;;;;;;;22.20;57.30;;;;;;1599021;73;791;-53
2022/10/14 07:26:40;;;;;;;;;;;22.20;57.30;;;;;;1581862;73;1539;-55
2022/10/14 07:28:41;;;;;;;;;;;22.20;57.30;;;;;;1571597;73;682;-56
2022/10/14 07:30:43;;;;;;;;;;;22.20;57.30;;;;;;1589024;73;701;-57
2022/10/14 07:32:45;;;;;;;;;;;22.30;57.40;;;;;;1584381;73;1085;-55
2022/10/14 07:34:47;;;;;;;;;;;22.20;57.30;;;;;;1594180;73;1945;-56
2022/10/14 07:36:49;;;;;;;;;;;22.30;57.30;;;;;;1589147;73;671;-52
2022/10/14 07:38:51;;;;;;;;;;;22.30;57.40;;;;;;1598550;73;725;-54
2022/10/14 07:40:57;;;;;;;;;;;22.20;57.20;;;;;;1588487;73;1568;-53
2022/10/14 07:42:59;;;;;;;;;;;22.30;57.40;;;;;;1597614;73;1842;-54
2022/10/14 07:45:01;;;;;;;;;;;22.20;57.30;;;;;;1589857;73;1155;-56
2022/10/14 07:47:04;;;;;;;;;;;22.20;57.30;;;;;;1594841;73;709;-56
2022/10/14 07:49:17;;;;;;;;;;;22.30;57.50;;;;;;1580841;73;669;-56
2022/10/14 07:51:18;;;;;;;;;;;22.20;57.30;;;;;;1596443;73;753;-56
2022/10/14 07:53:21;;;;;;;;;;;22.20;57.30;;;;;;1596850;73;703;-54
2022/10/14 07:55:23;;;;;;;;;;;22.20;57.30;;;;;;1581031;73;1930;-57
2022/10/14 07:57:26;;;;;;;;;;;22.20;57.30;;;;;;1587839;73;698;-56
2022/10/14 07:59:28;;;;;;;;;;;22.20;57.30;;;;;;1597261;73;786;-57
2022/10/14 08:01:30;;;;;;;;;;;22.20;57.30;;;;;;1598374;74;730;-57
2022/10/14 08:03:35;;;;;;;;;;;22.20;57.30;;;;;;1589772;73;670;-57
2022/10/14 08:05:37;;;;;;;;;;;22.20;57.30;;;;;;1580283;73;1160;-52
2022/10/14 08:07:39;;;;;;;;;;;22.30;57.40;;;;;;1594726;73;733;-57
2022/10/14 08:09:40;;;;;;;;;;;22.20;57.20;;;;;;1594023;73;1567;-56
2022/10/14 08:11:42;;;;;;;;;;;22.30;57.30;;;;;;1597007;73;779;-57
2022/10/14 08:13:44;;;;;;;;;;;22.30;57.30;;;;;;1595207;73;792;-56
2022/10/14 08:15:46;;;;;;;;;;;22.30;57.30;;;;;;1590619;73;1922;-57
2022/10/14 08:17:48;;;;;;;;;;;22.30;57.30;;;;;;1603434;73;598;-55
2022/10/14 08:19:50;;;;;;;;;;;22.20;57.10;;;;;;1597693;73;798;-54
2022/10/14 08:21:52;;;;;;;;;;;22.20;57.20;;;;;;1589773;73;794;-53
2022/10/14 08:23:54;;;;;;;;;;;22.30;57.30;;;;;;1588403;73;1606;-57
2022/10/14 08:25:56;;;;;;;;;;;22.30;57.30;;;;;;1610816;73;1110;-57
2022/10/14 08:27:58;;;;;;;;;;;22.30;57.20;;;;;;1599646;73;735;-57
2022/10/14 08:29:59;;;;;;;;;;;22.30;57.20;;;;;;1601278;73;852;-57
2022/10/14 08:32:01;;;;;;;;;;;22.30;57.20;;;;;;1587059;74;1092;-57
2022/10/14 08:34:03;;;;;;;;;;;22.30;57.20;;;;;;1595715;74;732;-56
2022/10/14 08:36:05;;;;;;;;;;;22.30;57.20;;;;;;1601349;73;1911;-54
2022/10/14 08:38:07;;;;;;;;;;;22.20;57.10;;;;;;1592523;73;1581;-54
2022/10/14 08:40:10;;;;;;;;;;;22.20;57.10;;;;;;1589987;73;806;-57
2022/10/14 08:42:25;;;;;;;;;;;22.20;57.10;;;;;;1592482;73;748;-57
2022/10/14 08:44:29;;;;;;;;;;;22.30;57.20;;;;;;1586678;73;719;-56
2022/10/14 08:46:32;;;;;;;;;;;22.30;57.20;;;;;;1584267;74;1520;-56
2022/10/14 08:48:35;;;;;;;;;;;22.30;57.20;;;;;;1589293;73;1897;-53
2022/10/14 08:50:38;;;;;;;;;;;22.30;57.10;;;;;;1584423;74;770;-57
2022/10/14 08:52:44;;;;;;;;;;;22.30;57.10;;;;;;1587461;73;1547;-57
2022/10/14 08:54:48;;;;;;;;;;;22.30;57.10;;;;;;1580558;73;1916;-57
2022/10/14 08:56:50;;;;;;;;;;;22.20;56.90;;;;;;1599738;74;1998;-57
2022/10/14 08:58:53;;;;;;;;;;;22.30;57.10;;;;;;1593807;73;708;-56
2022/10/14 09:00:55;;;;;;;;;;;22.30;57.10;;;;;;1589553;73;724;-57
2022/10/14 09:02:57;;;;;;;;;;;22.30;57.00;;;;;;1593310;73;795;-57
2022/10/14 09:04:59;;;;;;;;;;;22.30;57.10;;;;;;1581974;73;1287;-57
2022/10/14 09:07:01;;;;;;;;;;;22.30;57.00;;;;;;1598984;73;1879;-57
2022/10/14 09:09:07;;;;;;;;;;;22.30;57.00;;;;;;1602108;73;722;-57
2022/10/14 09:11:10;;;;;;;;;;;22.30;57.00;;;;;;1588518;73;708;-58
2022/10/14 09:13:19;;;;;;;;;;;22.30;56.90;;;;;;1592171;73;666;-58
2022/10/14 09:15:22;;;;;;;;;;;22.30;57.00;;;;;;1594725;73;1936;-57
2022/10/14 09:17:25;;;;;;;;;;;22.30;56.90;;;;;;1590459;73;717;-57
2022/10/14 09:19:34;;;;;;;;;;;22.30;56.90;;;;;;1600499;73;1563;-57
2022/10/14 09:21:41;;;;;;;;;;;22.30;56.90;;;;;;1594196;73;688;-57
2022/10/14 09:23:43;;;;;;;;;;;22.40;56.90;;;;;;1594937;73;1968;-57
2022/10/14 09:25:46;;;;;;;;;;;22.30;56.80;;;;;;1601775;73;1123;-57
2022/10/14 09:27:48;;;;;;;;;;;22.40;56.80;;;;;;1594284;74;1803;-57
2022/10/14 09:29:56;;;;;;;;;;;22.30;56.80;;;;;;1578370;74;739;-57
2022/10/14 09:31:58;;;;;;;;;;;22.40;56.80;;;;;;1586329;73;1811;-57
2022/10/14 09:34:00;;;;;;;;;;;22.40;56.80;;;;;;1579144;73;1546;-57
2022/10/14 09:36:02;;;;;;;;;;;22.30;56.80;;;;;;1585630;73;1948;-57
2022/10/14 09:38:04;;;;;;;;;;;22.40;56.80;;;;;;1594456;73;789;-57
2022/10/14 09:40:07;;;;;;;;;;;22.40;56.70;;;;;;1583512;73;723;-58
2022/10/14 09:42:20;;;;;;;;;;;22.40;56.70;;;;;;1577668;73;1941;-57
2022/10/14 09:44:24;;;;;;;;;;;22.40;56.70;;;;;;1580966;73;850;-57
2022/10/14 09:46:26;;;;;;;;;;;22.40;56.70;;;;;;1576720;73;1119;-57
2022/10/14 09:48:40;;;;;;;;;;;22.40;56.60;;;;;;1582875;73;1479;-57
2022/10/14 09:50:42;;;;;;;;;;;22.40;56.70;;;;;;1592040;73;1857;-53
2022/10/14 09:52:44;;;;;;;;;;;22.40;56.70;;;;;;1588038;74;735;-56
2022/10/14 09:54:46;;;;;;;;;;;22.40;56.60;;;;;;1555608;74;1303;-57
2022/10/14 09:56:48;;;;;;;;;;;22.40;56.70;;;;;;1547234;74;1937;-57
2022/10/14 09:58:52;;;;;;;;;;;22.40;56.60;;;;;;1590962;73;683;-51
2022/10/14 10:00:57;;;;;;;;;;;22.40;56.60;;;;;;1585447;74;776;-57
2022/10/14 10:02:59;;;;;;;;;;;22.40;56.60;;;;;;1585313;73;1560;-57
2022/10/14 10:05:03;;;;;;;;;;;22.40;56.60;;;;;;1583796;73;1152;-57
2022/10/14 10:07:06;;;;;;;;;;;22.40;56.50;;;;;;1579120;73;1884;-56
2022/10/14 10:09:08;;;;;;;;;;;22.40;56.50;;;;;;1581706;73;777;-57
2022/10/14 10:11:13;;;;;;;;;;;22.40;56.50;;;;;;1549793;74;1155;-57
2022/10/14 10:13:33;;;;;;;;;;;22.40;56.50;;;;;;1593046;73;746;-53
2022/10/14 10:15:35;;;;;;;;;;;22.40;56.50;;;;;;1578910;73;1939;-53
2022/10/14 10:17:39;;;;;;;;;;;22.40;56.50;;;;;;1587059;74;738;-55
2022/10/14 10:19:42;;;;;;;;;;;22.50;56.50;;;;;;1587012;73;661;-57
2022/10/14 10:21:45;;;;;;;;;;;22.50;56.30;;;;;;1582108;73;703;-55
2022/10/14 10:23:51;;;;;;;;;;;22.50;56.00;;;;;;1594163;73;668;-57
2022/10/14 10:25:53;;;;;;;;;;;22.60;56.00;;;;;;1570460;73;1579;-57
2022/10/14 10:27:57;;;;;;;;;;;22.50;55.90;;;;;;1596891;73;739;-55
2022/10/14 10:29:59;;;;;;;;;;;22.60;55.90;;;;;;1583073;73;1563;-57
2022/10/14 10:32:05;;;;;;;;;;;22.60;55.90;;;;;;1544902;74;1157;-56
2022/10/14 10:34:07;;;;;;;;;;;22.60;55.80;;;;;;1575132;73;1605;-57
2022/10/14 10:36:20;;;;;;;;;;;22.60;55.80;;;;;;1589370;74;1945;-57
2022/10/14 10:38:23;;;;;;;;;;;22.60;55.90;;;;;;1596585;73;961;-57
2022/10/14 10:40:31;;;;;;;;;;;22.60;55.90;;;;;;1566892;73;1679;-56
2022/10/14 10:42:53;;;;;;;;;;;22.70;55.80;;;;;;1589703;73;734;-54
2022/10/14 10:44:59;;;;;;;;;;;22.70;55.80;;;;;;1587146;74;2038;-52
2022/10/14 10:47:19;;;;;;;;;;;22.70;55.80;;;;;;1589914;73;685;-57
2022/10/14 10:49:39;;;;;;;;;;;22.70;55.80;;;;;;1578956;74;835;-57
2022/10/14 10:51:42;;;;;;;;;;;22.70;55.70;;;;;;1581838;73;674;-57
2022/10/14 10:53:49;;;;;;;;;;;22.70;55.60;;;;;;1546204;74;1038;-58
2022/10/14 10:55:55;;;;;;;;;;;22.80;55.60;;;;;;1582486;73;1954;-54
2022/10/14 10:58:11;;;;;;;;;;;22.80;55.80;;;;;;1575283;74;1579;-57
2022/10/14 11:00:15;;;;;;;;;;;22.70;55.70;;;;;;1579681;73;1457;-55
2022/10/14 11:02:25;;;;;;;;;;;22.70;55.70;;;;;;1580774;74;1786;-56
2022/10/14 11:04:33;;;;;;;;;;;22.60;55.50;;;;;;1588874;73;1922;-53
2022/10/14 11:13:56;;;;;;;;;;;22.30;55.00;;;;;;1569294;74;1895;-56
2022/10/14 11:16:03;;;;;;;;;;;22.40;54.60;;;;;;1576055;74;1950;-55
2022/10/14 11:18:13;;;;;;;;;;;22.30;54.50;;;;;;1583682;73;723;-57
2022/10/14 11:20:21;;;;;;;;;;;22.30;54.00;;;;;;1569339;73;713;-55
2022/10/14 11:22:41;;;;;;;;;;;22.30;54.30;;;;;;1582240;73;1976;-57
2022/10/14 11:25:01;;;;;;;;;;;22.20;53.40;;;;;;1586853;74;654;-57
2022/10/14 11:27:20;;;;;;;;;;;22.20;53.50;;;;;;1578188;74;1580;-57
2022/10/14 11:29:29;;;;;;;;;;;22.20;53.40;;;;;;1574998;73;2308;-57
2022/10/14 11:31:33;;;;;;;;;;;22.20;53.30;;;;;;1573038;73;673;-54
2022/10/14 11:33:53;;;;;;;;;;;22.10;52.90;;;;;;1578046;73;1933;-57
2022/10/14 11:36:13;;;;;;;;;;;22.10;52.80;;;;;;1586970;73;1946;-57
2022/10/14 11:38:28;;;;;;;;;;;22.10;52.90;;;;;;1573073;74;622;-57
2022/10/14 11:40:44;;;;;;;;;;;22.10;53.30;;;;;;1570723;73;1576;-56
2022/10/14 11:42:51;;;;;;;;;;;22.10;53.10;;;;;;1528520;74;961;-57
2022/10/14 11:44:54;;;;;;;;;;;22.10;52.80;;;;;;1584114;73;2307;-57
2022/10/14 11:46:57;;;;;;;;;;;22.10;52.80;;;;;;1594555;73;2107;-55
2022/10/14 11:49:00;;;;;;;;;;;22.10;53.00;;;;;;1579771;73;708;-56
2022/10/14 11:51:03;;;;;;;;;;;22.20;53.00;;;;;;1581625;73;771;-57
2022/10/14 11:53:13;;;;;;;;;;;22.20;53.10;;;;;;1575527;73;1679;-57
2022/10/14 11:55:23;;;;;;;;;;;22.20;53.10;;;;;;1583013;74;1572;-55
2022/10/14 11:57:26;;;;;;;;;;;22.30;53.50;;;;;;1586870;73;1929;-57
2022/10/14 11:59:33;;;;;;;;;;;22.10;53.40;;;;;;1556498;75;734;-56
2022/10/14 12:01:34;;;;;;;;;;;22.20;53.40;;;;;;1575391;73;656;-56
2022/10/14 12:03:38;;;;;;;;;;;22.20;53.50;;;;;;1578053;74;823;-57
2022/10/14 12:05:43;;;;;;;;;;;22.10;53.60;;;;;;1577834;73;1858;-55
2022/10/14 12:08:05;;;;;;;;;;;22.10;53.60;;;;;;1585073;73;632;-57
2022/10/14 12:10:21;;;;;;;;;;;22.10;53.60;;;;;;1581415;74;1918;-56
2022/10/14 12:12:24;;;;;;;;;;;22.10;53.50;;;;;;1572763;73;689;-55
2022/10/14 12:14:31;;;;;;;;;;;22.10;53.60;;;;;;1582159;74;698;-51
2022/10/14 12:16:32;;;;;;;;;;;22.10;53.60;;;;;;1581972;73;1931;-55
2022/10/14 12:18:35;;;;;;;;;;;22.10;53.60;;;;;;1581269;73;829;-54
2022/10/14 12:20:44;;;;;;;;;;;22.10;53.60;;;;;;1580299;73;869;-56
2022/10/14 12:22:46;;;;;;;;;;;22.00;53.50;;;;;;1581411;74;1571;-56
2022/10/14 12:24:50;;;;;;;;;;;22.00;53.60;;;;;;1575735;73;1192;-56